sensor_id;sensor_type;location;lat;lon;timestamp;temperature;humidity
73133;DHT22;61320;52.008;4.530;2023-04-23T00:00:12;10.27;82.85
73133;DHT22;61320;52.008;4.530;2023-04-23T00:02:38;10.26;82.92
73133;DHT22;61320;52.008;4.530;2023-04-23T00:05:05;10.29;82.91
73133;DHT22;61320;52.008;4.530;2023-04-23T00:07:33;10.34;82.74
73133;DHT22;61320;52.008;4.530;2023-04-23T00:10:00;10.30;82.56
73133;DHT22;61320;52.008;4.530;2023-04-23T00:12:27;10.38;82.94
73133;DHT22;61320;52.008;4.530;2023-04-23T00:14:53;10.44;82.83
73133;DHT22;61320;52.008;4.530;2023-04-23T00:17:19;10.46;82.64
73133;DHT22;61320;52.008;4.530;2023-04-23T00:19:44;10.46;82.64
73133;DHT22;61320;52.008;4.530;2023-04-23T00:22:12;10.44;82.76
73133;DHT22;61320;52.008;4.530;2023-04-23T00:24:38;10.54;83.01
73133;DHT22;61320;52.008;4.530;2023-04-23T00:27:05;10.54;82.83
73133;DHT22;61320;52.008;4.530;2023-04-23T00:29:31;10.60;82.60
73133;DHT22;61320;52.008;4.530;2023-04-23T00:31:56;10.64;82.70
73133;DHT22;61320;52.008;4.530;2023-04-23T00:34:22;10.69;82.57
73133;DHT22;61320;52.008;4.530;2023-04-23T00:36:47;10.75;82.30
73133;DHT22;61320;52.008;4.530;2023-04-23T00:39:13;10.75;82.42
73133;DHT22;61320;52.008;4.530;2023-04-23T00:41:39;10.82;82.25
73133;DHT22;61320;52.008;4.530;2023-04-23T00:44:06;10.84;82.14
73133;DHT22;61320;52.008;4.530;2023-04-23T00:46:31;10.78;81.75
73133;DHT22;61320;52.008;4.530;2023-04-23T00:48:57;10.78;81.94
73133;DHT22;61320;52.008;4.530;2023-04-23T00:51:24;10.78;82.00
73133;DHT22;61320;52.008;4.530;2023-04-23T00:53:50;10.74;81.76
73133;DHT22;61320;52.008;4.530;2023-04-23T00:56:16;10.74;82.15
73133;DHT22;61320;52.008;4.530;2023-04-23T00:58:43;10.72;82.24
73133;DHT22;61320;52.008;4.530;2023-04-23T01:01:10;10.77;82.37
73133;DHT22;61320;52.008;4.530;2023-04-23T01:03:37;10.77;82.25
73133;DHT22;61320;52.008;4.530;2023-04-23T01:06:05;10.79;82.23
73133;DHT22;61320;52.008;4.530;2023-04-23T01:08:32;10.82;82.26
73133;DHT22;61320;52.008;4.530;2023-04-23T01:10:58;10.81;82.16
73133;DHT22;61320;52.008;4.530;2023-04-23T01:13:24;10.79;82.16
73133;DHT22;61320;52.008;4.530;2023-04-23T01:15:54;10.81;82.09
73133;DHT22;61320;52.008;4.530;2023-04-23T01:18:21;10.84;82.28
73133;DHT22;61320;52.008;4.530;2023-04-23T01:20:47;10.82;82.14
73133;DHT22;61320;52.008;4.530;2023-04-23T01:23:14;10.88;82.43
73133;DHT22;61320;52.008;4.530;2023-04-23T01:25:40;10.91;82.15
73133;DHT22;61320;52.008;4.530;2023-04-23T01:28:05;10.91;82.23
73133;DHT22;61320;52.008;4.530;2023-04-23T01:30:32;10.92;82.02
73133;DHT22;61320;52.008;4.530;2023-04-23T01:32:58;10.98;82.38
73133;DHT22;61320;52.008;4.530;2023-04-23T01:35:24;11.02;82.08
73133;DHT22;61320;52.008;4.530;2023-04-23T01:37:51;11.02;81.97
73133;DHT22;61320;52.008;4.530;2023-04-23T01:40:19;10.95;81.68
73133;DHT22;61320;52.008;4.530;2023-04-23T01:42:45;11.02;82.05
73133;DHT22;61320;52.008;4.530;2023-04-23T01:45:10;11.06;82.13
73133;DHT22;61320;52.008;4.530;2023-04-23T01:47:36;11.09;81.88
73133;DHT22;61320;52.008;4.530;2023-04-23T01:50:02;11.05;81.71
73133;DHT22;61320;52.008;4.530;2023-04-23T01:52:29;10.99;82.11
73133;DHT22;61320;52.008;4.530;2023-04-23T01:54:55;11.01;81.94
73133;DHT22;61320;52.008;4.530;2023-04-23T01:57:20;11.02;82.05
73133;DHT22;61320;52.008;4.530;2023-04-23T02:00:00;11.01;82.18
73133;DHT22;61320;52.008;4.530;2023-04-23T02:02:28;11.02;81.94
73133;DHT22;61320;52.008;4.530;2023-04-23T02:04:55;11.01;81.98
73133;DHT22;61320;52.008;4.530;2023-04-23T02:07:21;10.94;82.20
73133;DHT22;61320;52.008;4.530;2023-04-23T02:09:47;10.96;82.19
73133;DHT22;61320;52.008;4.530;2023-04-23T02:12:12;10.92;82.13
73133;DHT22;61320;52.008;4.530;2023-04-23T02:14:38;10.98;82.05
73133;DHT22;61320;52.008;4.530;2023-04-23T02:17:03;10.99;81.99
73133;DHT22;61320;52.008;4.530;2023-04-23T02:19:29;10.99;81.54
73133;DHT22;61320;52.008;4.530;2023-04-23T02:21:58;11.01;81.78
73133;DHT22;61320;52.008;4.530;2023-04-23T02:24:24;11.01;81.61
73133;DHT22;61320;52.008;4.530;2023-04-23T02:26:49;10.91;81.99
73133;DHT22;61320;52.008;4.530;2023-04-23T02:29:15;10.95;81.82
73133;DHT22;61320;52.008;4.530;2023-04-23T02:31:40;10.92;81.91
73133;DHT22;61320;52.008;4.530;2023-04-23T02:34:06;10.92;81.57
73133;DHT22;61320;52.008;4.530;2023-04-23T02:36:31;10.89;82.20
73133;DHT22;61320;52.008;4.530;2023-04-23T02:38:56;10.94;81.91
73133;DHT22;61320;52.008;4.530;2023-04-23T02:41:22;10.99;81.37
73133;DHT22;61320;52.008;4.530;2023-04-23T02:43:47;10.96;81.36
73133;DHT22;61320;52.008;4.530;2023-04-23T02:46:13;10.88;81.75
73133;DHT22;61320;52.008;4.530;2023-04-23T02:48:40;10.84;81.01
73133;DHT22;61320;52.008;4.530;2023-04-23T02:51:07;10.78;81.99
73133;DHT22;61320;52.008;4.530;2023-04-23T02:53:33;10.75;82.10
73133;DHT22;61320;52.008;4.530;2023-04-23T02:55:59;10.81;81.78
73133;DHT22;61320;52.008;4.530;2023-04-23T02:58:25;10.82;81.80
73133;DHT22;61320;52.008;4.530;2023-04-23T03:00:51;10.77;81.94
73133;DHT22;61320;52.008;4.530;2023-04-23T03:03:17;10.86;81.84
73133;DHT22;61320;52.008;4.530;2023-04-23T03:05:42;10.89;82.04
73133;DHT22;61320;52.008;4.530;2023-04-23T03:08:08;10.91;81.35
73133;DHT22;61320;52.008;4.530;2023-04-23T03:10:33;10.88;81.09
73133;DHT22;61320;52.008;4.530;2023-04-23T03:12:58;10.84;81.82
73133;DHT22;61320;52.008;4.530;2023-04-23T03:15:25;10.86;82.22
73133;DHT22;61320;52.008;4.530;2023-04-23T03:17:51;10.91;82.02
73133;DHT22;61320;52.008;4.530;2023-04-23T03:20:18;10.92;82.12
73133;DHT22;61320;52.008;4.530;2023-04-23T03:22:44;10.98;81.68
73133;DHT22;61320;52.008;4.530;2023-04-23T03:25:10;10.98;81.89
73133;DHT22;61320;52.008;4.530;2023-04-23T03:27:39;11.01;81.88
73133;DHT22;61320;52.008;4.530;2023-04-23T03:30:08;11.06;82.09
73133;DHT22;61320;52.008;4.530;2023-04-23T03:32:35;11.09;81.71
73133;DHT22;61320;52.008;4.530;2023-04-23T03:35:01;11.11;81.50
73133;DHT22;61320;52.008;4.530;2023-04-23T03:37:26;11.06;81.99
73133;DHT22;61320;52.008;4.530;2023-04-23T03:39:52;11.05;82.10
73133;DHT22;61320;52.008;4.530;2023-04-23T03:42:17;11.16;81.81
73133;DHT22;61320;52.008;4.530;2023-04-23T03:44:43;11.22;81.35
73133;DHT22;61320;52.008;4.530;2023-04-23T03:47:08;11.16;81.66
73133;DHT22;61320;52.008;4.530;2023-04-23T03:49:34;11.22;81.80
73133;DHT22;61320;52.008;4.530;2023-04-23T03:51:59;11.22;81.37
73133;DHT22;61320;52.008;4.530;2023-04-23T03:54:25;11.26;81.31
73133;DHT22;61320;52.008;4.530;2023-04-23T03:56:52;11.26;81.14
73133;DHT22;61320;52.008;4.530;2023-04-23T03:59:19;11.25;81.34
73133;DHT22;61320;52.008;4.530;2023-04-23T04:01:46;11.32;80.86
73133;DHT22;61320;52.008;4.530;2023-04-23T04:04:13;11.26;81.39
73133;DHT22;61320;52.008;4.530;2023-04-23T04:06:39;11.12;81.56
73133;DHT22;61320;52.008;4.530;2023-04-23T04:09:05;11.09;81.72
73133;DHT22;61320;52.008;4.530;2023-04-23T04:11:32;11.19;81.81
73133;DHT22;61320;52.008;4.530;2023-04-23T04:13:57;11.23;81.25
73133;DHT22;61320;52.008;4.530;2023-04-23T04:16:23;11.27;81.41
73133;DHT22;61320;52.008;4.530;2023-04-23T04:18:48;11.26;80.81
73133;DHT22;61320;52.008;4.530;2023-04-23T04:21:13;11.20;81.53
73133;DHT22;61320;52.008;4.530;2023-04-23T04:23:42;11.22;81.54
73133;DHT22;61320;52.008;4.530;2023-04-23T04:26:07;11.29;81.49
73133;DHT22;61320;52.008;4.530;2023-04-23T04:28:33;11.29;81.57
73133;DHT22;61320;52.008;4.530;2023-04-23T04:31:01;11.33;81.39
73133;DHT22;61320;52.008;4.530;2023-04-23T04:33:26;11.33;81.08
73133;DHT22;61320;52.008;4.530;2023-04-23T04:35:54;11.33;80.90
73133;DHT22;61320;52.008;4.530;2023-04-23T04:38:20;11.30;81.06
73133;DHT22;61320;52.008;4.530;2023-04-23T04:40:46;11.29;81.42
73133;DHT22;61320;52.008;4.530;2023-04-23T04:43:13;11.30;80.84
73133;DHT22;61320;52.008;4.530;2023-04-23T04:45:39;11.33;80.72
73133;DHT22;61320;52.008;4.530;2023-04-23T04:48:05;11.23;80.74
73133;DHT22;61320;52.008;4.530;2023-04-23T04:50:30;11.18;81.26
73133;DHT22;61320;52.008;4.530;2023-04-23T04:52:55;11.15;81.15
73133;DHT22;61320;52.008;4.530;2023-04-23T04:55:21;11.15;81.12
73133;DHT22;61320;52.008;4.530;2023-04-23T04:57:46;11.22;81.00
73133;DHT22;61320;52.008;4.530;2023-04-23T05:00:26;11.13;81.14
73133;DHT22;61320;52.008;4.530;2023-04-23T05:02:54;11.15;80.95
73133;DHT22;61320;52.008;4.530;2023-04-23T05:05:22;11.15;80.12
73133;DHT22;61320;52.008;4.530;2023-04-23T05:07:47;10.98;81.30
73133;DHT22;61320;52.008;4.530;2023-04-23T05:10:14;10.99;81.33
73133;DHT22;61320;52.008;4.530;2023-04-23T05:12:43;11.04;81.64
73133;DHT22;61320;52.008;4.530;2023-04-23T05:15:10;11.05;81.64
73133;DHT22;61320;52.008;4.530;2023-04-23T05:17:38;11.08;81.32
73133;DHT22;61320;52.008;4.530;2023-04-23T05:20:04;11.09;81.34
73133;DHT22;61320;52.008;4.530;2023-04-23T05:22:30;11.13;81.54
73133;DHT22;61320;52.008;4.530;2023-04-23T05:24:56;11.09;81.40
73133;DHT22;61320;52.008;4.530;2023-04-23T05:27:21;11.13;81.39
73133;DHT22;61320;52.008;4.530;2023-04-23T05:29:46;11.19;81.39
73133;DHT22;61320;52.008;4.530;2023-04-23T05:32:12;11.19;81.18
73133;DHT22;61320;52.008;4.530;2023-04-23T05:34:38;11.22;81.17
73133;DHT22;61320;52.008;4.530;2023-04-23T05:37:03;11.22;81.04
73133;DHT22;61320;52.008;4.530;2023-04-23T05:39:30;11.20;81.29
73133;DHT22;61320;52.008;4.530;2023-04-23T05:41:55;11.19;81.05
73133;DHT22;61320;52.008;4.530;2023-04-23T05:44:22;11.23;81.04
73133;DHT22;61320;52.008;4.530;2023-04-23T05:46:48;11.23;80.94
73133;DHT22;61320;52.008;4.530;2023-04-23T05:49:13;11.22;81.20
73133;DHT22;61320;52.008;4.530;2023-04-23T05:51:39;11.20;81.27
73133;DHT22;61320;52.008;4.530;2023-04-23T05:54:04;11.25;80.94
73133;DHT22;61320;52.008;4.530;2023-04-23T05:56:30;11.20;81.13
73133;DHT22;61320;52.008;4.530;2023-04-23T05:58:55;11.19;81.05
73133;DHT22;61320;52.008;4.530;2023-04-23T06:01:21;11.25;81.37
73133;DHT22;61320;52.008;4.530;2023-04-23T06:03:46;11.26;81.34
73133;DHT22;61320;52.008;4.530;2023-04-23T06:06:12;11.36;81.36
73133;DHT22;61320;52.008;4.530;2023-04-23T06:08:38;11.40;81.26
73133;DHT22;61320;52.008;4.530;2023-04-23T06:11:04;11.42;80.88
73133;DHT22;61320;52.008;4.530;2023-04-23T06:13:30;11.40;81.11
73133;DHT22;61320;52.008;4.530;2023-04-23T06:15:56;11.50;81.24
73133;DHT22;61320;52.008;4.530;2023-04-23T06:18:22;11.54;81.08
73133;DHT22;61320;52.008;4.530;2023-04-23T06:20:47;11.67;81.19
73133;DHT22;61320;52.008;4.530;2023-04-23T06:23:13;11.75;80.25
73133;DHT22;61320;52.008;4.530;2023-04-23T06:25:39;11.80;80.90
73133;DHT22;61320;52.008;4.530;2023-04-23T06:28:05;11.84;80.68
73133;DHT22;61320;52.008;4.530;2023-04-23T06:30:30;11.84;80.22
73133;DHT22;61320;52.008;4.530;2023-04-23T06:32:56;11.88;80.43
73133;DHT22;61320;52.008;4.530;2023-04-23T06:35:21;11.93;80.41
73133;DHT22;61320;52.008;4.530;2023-04-23T06:37:47;12.02;79.88
73133;DHT22;61320;52.008;4.530;2023-04-23T06:40:13;12.06;80.01
73133;DHT22;61320;52.008;4.530;2023-04-23T06:42:38;12.18;79.87
73133;DHT22;61320;52.008;4.530;2023-04-23T06:45:04;12.22;80.15
73133;DHT22;61320;52.008;4.530;2023-04-23T06:47:30;12.33;79.44
73133;DHT22;61320;52.008;4.530;2023-04-23T06:49:57;12.50;79.73
73133;DHT22;61320;52.008;4.530;2023-04-23T06:52:24;12.64;78.89
73133;DHT22;61320;52.008;4.530;2023-04-23T06:54:49;12.60;79.20
73133;DHT22;61320;52.008;4.530;2023-04-23T06:57:15;12.67;79.10
73133;DHT22;61320;52.008;4.530;2023-04-23T06:59:40;12.77;78.58
73133;DHT22;61320;52.008;4.530;2023-04-23T07:02:06;12.81;78.10
73133;DHT22;61320;52.008;4.530;2023-04-23T07:04:31;12.94;78.41
73133;DHT22;61320;52.008;4.530;2023-04-23T07:06:57;13.00;77.18
73133;DHT22;61320;52.008;4.530;2023-04-23T07:09:23;13.03;77.82
73133;DHT22;61320;52.008;4.530;2023-04-23T07:11:49;13.04;77.45
73133;DHT22;61320;52.008;4.530;2023-04-23T07:14:15;13.03;78.04
73133;DHT22;61320;52.008;4.530;2023-04-23T07:16:40;13.07;76.00
73133;DHT22;61320;52.008;4.530;2023-04-23T07:19:06;13.15;77.03
73133;DHT22;61320;52.008;4.530;2023-04-23T07:21:31;13.24;76.66
73133;DHT22;61320;52.008;4.530;2023-04-23T07:23:57;13.31;76.98
73133;DHT22;61320;52.008;4.530;2023-04-23T07:26:31;13.68;77.05
73133;DHT22;61320;52.008;4.530;2023-04-23T07:28:57;13.93;75.46
73133;DHT22;61320;52.008;4.530;2023-04-23T07:31:22;14.05;75.20
73133;DHT22;61320;52.008;4.530;2023-04-23T07:33:48;14.20;74.30
73133;DHT22;61320;52.008;4.530;2023-04-23T07:36:13;14.14;75.22
73133;DHT22;61320;52.008;4.530;2023-04-23T07:38:39;14.19;76.22
73133;DHT22;61320;52.008;4.530;2023-04-23T07:41:05;14.26;73.39
73133;DHT22;61320;52.008;4.530;2023-04-23T07:43:30;14.33;74.97
73133;DHT22;61320;52.008;4.530;2023-04-23T07:45:56;14.49;74.86
73133;DHT22;61320;52.008;4.530;2023-04-23T07:48:21;14.65;73.98
73133;DHT22;61320;52.008;4.530;2023-04-23T07:50:46;14.77;72.93
73133;DHT22;61320;52.008;4.530;2023-04-23T07:53:12;14.65;73.01
73133;DHT22;61320;52.008;4.530;2023-04-23T07:55:38;14.75;73.20
73133;DHT22;61320;52.008;4.530;2023-04-23T07:58:03;14.72;71.62
73133;DHT22;61320;52.008;4.530;2023-04-23T08:00:29;14.78;71.83
73133;DHT22;61320;52.008;4.530;2023-04-23T08:02:55;14.85;72.87
73133;DHT22;61320;52.008;4.530;2023-04-23T08:05:20;14.89;72.97
73133;DHT22;61320;52.008;4.530;2023-04-23T08:07:46;14.92;72.31
73133;DHT22;61320;52.008;4.530;2023-04-23T08:10:12;14.89;72.92
73133;DHT22;61320;52.008;4.530;2023-04-23T08:12:37;14.99;73.74
73133;DHT22;61320;52.008;4.530;2023-04-23T08:15:03;15.05;73.43
73133;DHT22;61320;52.008;4.530;2023-04-23T08:17:29;14.92;73.11
73133;DHT22;61320;52.008;4.530;2023-04-23T08:19:54;14.93;70.81
73133;DHT22;61320;52.008;4.530;2023-04-23T08:22:19;14.93;71.73
73133;DHT22;61320;52.008;4.530;2023-04-23T08:24:45;14.99;73.10
73133;DHT22;61320;52.008;4.530;2023-04-23T08:27:11;15.12;73.83
73133;DHT22;61320;52.008;4.530;2023-04-23T08:29:37;15.12;72.00
73133;DHT22;61320;52.008;4.530;2023-04-23T08:32:02;15.03;71.65
73133;DHT22;61320;52.008;4.530;2023-04-23T08:34:28;15.12;72.59
73133;DHT22;61320;52.008;4.530;2023-04-23T08:36:53;15.20;71.17
73133;DHT22;61320;52.008;4.530;2023-04-23T08:39:19;15.25;69.60
73133;DHT22;61320;52.008;4.530;2023-04-23T08:41:51;15.25;69.38
73133;DHT22;61320;52.008;4.530;2023-04-23T08:44:22;15.44;70.28
73133;DHT22;61320;52.008;4.530;2023-04-23T08:46:48;15.61;69.58
73133;DHT22;61320;52.008;4.530;2023-04-23T08:49:16;15.75;67.57
73133;DHT22;61320;52.008;4.530;2023-04-23T08:51:53;15.75;69.69
73133;DHT22;61320;52.008;4.530;2023-04-23T08:54:27;15.70;70.40
73133;DHT22;61320;52.008;4.530;2023-04-23T08:56:57;15.63;69.38
73133;DHT22;61320;52.008;4.530;2023-04-23T08:59:24;15.68;70.84
73133;DHT22;61320;52.008;4.530;2023-04-23T09:01:51;15.73;69.90
73133;DHT22;61320;52.008;4.530;2023-04-23T09:04:17;15.71;68.79
73133;DHT22;61320;52.008;4.530;2023-04-23T09:06:45;15.83;68.85
73133;DHT22;61320;52.008;4.530;2023-04-23T09:09:15;16.00;67.69
73133;DHT22;61320;52.008;4.530;2023-04-23T09:11:41;16.19;67.78
73133;DHT22;61320;52.008;4.530;2023-04-23T09:14:07;16.49;67.21
73133;DHT22;61320;52.008;4.530;2023-04-23T09:16:33;16.77;68.07
73133;DHT22;61320;52.008;4.530;2023-04-23T09:18:58;17.11;66.37
73133;DHT22;61320;52.008;4.530;2023-04-23T09:21:24;17.42;65.26
73133;DHT22;61320;52.008;4.530;2023-04-23T09:26:21;17.34;63.16
73133;DHT22;61320;52.008;4.530;2023-04-23T09:28:49;17.21;64.23
73133;DHT22;61320;52.008;4.530;2023-04-23T09:31:22;16.79;64.10
73133;DHT22;61320;52.008;4.530;2023-04-23T09:33:52;16.70;64.47
73133;DHT22;61320;52.008;4.530;2023-04-23T09:36:22;16.73;63.71
73133;DHT22;61320;52.008;4.530;2023-04-23T09:38:48;16.85;64.96
73133;DHT22;61320;52.008;4.530;2023-04-23T09:41:21;17.18;63.90
73133;DHT22;61320;52.008;4.530;2023-04-23T09:43:47;17.46;66.36
73133;DHT22;61320;52.008;4.530;2023-04-23T09:46:12;17.83;64.96
73133;DHT22;61320;52.008;4.530;2023-04-23T09:48:41;18.03;62.16
73133;DHT22;61320;52.008;4.530;2023-04-23T09:51:07;18.24;60.87
73133;DHT22;61320;52.008;4.530;2023-04-23T09:53:42;18.59;62.95
73133;DHT22;61320;52.008;4.530;2023-04-23T09:56:08;18.87;59.99
73133;DHT22;61320;52.008;4.530;2023-04-23T09:58:34;18.64;59.37
73133;DHT22;61320;52.008;4.530;2023-04-23T10:01:07;18.34;60.69
73133;DHT22;61320;52.008;4.530;2023-04-23T10:03:32;18.36;60.71
73133;DHT22;61320;52.008;4.530;2023-04-23T10:05:58;18.51;61.88
73133;DHT22;61320;52.008;4.530;2023-04-23T10:08:24;18.79;57.77
73133;DHT22;61320;52.008;4.530;2023-04-23T10:10:50;18.81;58.90
73133;DHT22;61320;52.008;4.530;2023-04-23T10:13:16;18.95;59.79
73133;DHT22;61320;52.008;4.530;2023-04-23T10:15:45;19.15;56.40
73133;DHT22;61320;52.008;4.530;2023-04-23T10:18:13;19.03;57.74
73133;DHT22;61320;52.008;4.530;2023-04-23T10:20:40;18.94;59.57
73133;DHT22;61320;52.008;4.530;2023-04-23T10:23:08;18.99;58.29
73133;DHT22;61320;52.008;4.530;2023-04-23T10:25:35;18.52;56.10
73133;DHT22;61320;52.008;4.530;2023-04-23T10:28:05;18.07;56.41
73133;DHT22;61320;52.008;4.530;2023-04-23T10:30:32;17.87;57.65
73133;DHT22;61320;52.008;4.530;2023-04-23T10:33:00;17.92;58.26
73133;DHT22;61320;52.008;4.530;2023-04-23T10:35:26;17.94;59.27
73133;DHT22;61320;52.008;4.530;2023-04-23T10:37:52;17.97;56.85
73133;DHT22;61320;52.008;4.530;2023-04-23T10:40:23;18.03;56.53
73133;DHT22;61320;52.008;4.530;2023-04-23T10:42:50;17.76;57.15
73133;DHT22;61320;52.008;4.530;2023-04-23T10:45:18;17.92;57.77
73133;DHT22;61320;52.008;4.530;2023-04-23T10:47:45;18.16;58.66
73133;DHT22;61320;52.008;4.530;2023-04-23T10:55:19;18.44;56.08
73133;DHT22;61320;52.008;4.530;2023-04-23T10:58:02;18.00;59.43
73133;DHT22;61320;52.008;4.530;2023-04-23T11:00:48;17.80;61.68
73133;DHT22;61320;52.008;4.530;2023-04-23T11:06:00;17.61;61.65
73133;DHT22;61320;52.008;4.530;2023-04-23T11:08:28;17.63;62.04
73133;DHT22;61320;52.008;4.530;2023-04-23T11:10:58;17.62;62.01
73133;DHT22;61320;52.008;4.530;2023-04-23T11:13:28;17.56;62.09
73133;DHT22;61320;52.008;4.530;2023-04-23T11:16:14;17.53;60.57
73133;DHT22;61320;52.008;4.530;2023-04-23T11:19:09;17.38;59.66
73133;DHT22;61320;52.008;4.530;2023-04-23T11:22:02;17.34;59.74
73133;DHT22;61320;52.008;4.530;2023-04-23T11:24:35;17.35;59.15
73133;DHT22;61320;52.008;4.530;2023-04-23T11:27:05;17.35;57.89
73133;DHT22;61320;52.008;4.530;2023-04-23T11:29:31;17.43;60.23
73133;DHT22;61320;52.008;4.530;2023-04-23T11:31:58;17.61;60.11
73133;DHT22;61320;52.008;4.530;2023-04-23T11:34:24;17.85;57.73
73133;DHT22;61320;52.008;4.530;2023-04-23T11:36:57;18.00;60.82
73133;DHT22;61320;52.008;4.530;2023-04-23T11:39:23;18.26;58.87
73133;DHT22;61320;52.008;4.530;2023-04-23T11:41:48;18.45;59.10
73133;DHT22;61320;52.008;4.530;2023-04-23T11:44:15;18.57;58.09
73133;DHT22;61320;52.008;4.530;2023-04-23T11:46:40;18.64;58.65
73133;DHT22;61320;52.008;4.530;2023-04-23T11:49:06;18.58;56.11
73133;DHT22;61320;52.008;4.530;2023-04-23T11:51:33;18.57;57.28
73133;DHT22;61320;52.008;4.530;2023-04-23T11:54:03;18.44;59.25
73133;DHT22;61320;52.008;4.530;2023-04-23T11:56:30;18.48;56.81
73133;DHT22;61320;52.008;4.530;2023-04-23T11:59:00;18.45;56.37
73133;DHT22;61320;52.008;4.530;2023-04-23T12:01:45;18.44;56.99
73133;DHT22;61320;52.008;4.530;2023-04-23T12:04:12;18.24;57.08
73133;DHT22;61320;52.008;4.530;2023-04-23T12:06:39;18.26;57.03
73133;DHT22;61320;52.008;4.530;2023-04-23T12:09:05;18.33;59.51
73133;DHT22;61320;52.008;4.530;2023-04-23T12:11:30;18.36;57.22
73133;DHT22;61320;52.008;4.530;2023-04-23T12:13:56;18.29;56.26
73133;DHT22;61320;52.008;4.530;2023-04-23T12:16:41;18.10;56.76
73133;DHT22;61320;52.008;4.530;2023-04-23T12:21:50;18.04;57.65
73133;DHT22;61320;52.008;4.530;2023-04-23T12:24:20;18.11;56.21
73133;DHT22;61320;52.008;4.530;2023-04-23T12:26:49;18.04;57.13
73133;DHT22;61320;52.008;4.530;2023-04-23T12:29:20;18.07;57.23
73133;DHT22;61320;52.008;4.530;2023-04-23T12:31:47;18.17;56.62
73133;DHT22;61320;52.008;4.530;2023-04-23T12:34:14;18.31;56.21
73133;DHT22;61320;52.008;4.530;2023-04-23T12:36:44;18.54;56.55
73133;DHT22;61320;52.008;4.530;2023-04-23T12:41:54;18.55;55.82
73133;DHT22;61320;52.008;4.530;2023-04-23T12:44:20;18.45;56.30
73133;DHT22;61320;52.008;4.530;2023-04-23T12:46:53;18.29;56.10
73133;DHT22;61320;52.008;4.530;2023-04-23T12:49:18;17.97;57.78
73133;DHT22;61320;52.008;4.530;2023-04-23T12:51:44;17.59;55.58
73133;DHT22;61320;52.008;4.530;2023-04-23T12:54:10;17.35;60.72
73133;DHT22;61320;52.008;4.530;2023-04-23T12:56:35;17.28;62.73
73133;DHT22;61320;52.008;4.530;2023-04-23T12:59:02;17.03;63.76
73133;DHT22;61320;52.008;4.530;2023-04-23T13:01:29;16.76;64.16
73133;DHT22;61320;52.008;4.530;2023-04-23T13:03:55;16.56;64.41
73133;DHT22;61320;52.008;4.530;2023-04-23T13:06:20;16.46;64.02
73133;DHT22;61320;52.008;4.530;2023-04-23T13:08:46;16.45;62.54
73133;DHT22;61320;52.008;4.530;2023-04-23T13:11:11;16.45;62.68
73133;DHT22;61320;52.008;4.530;2023-04-23T13:13:37;16.42;62.58
73133;DHT22;61320;52.008;4.530;2023-04-23T13:16:02;16.53;62.58
73133;DHT22;61320;52.008;4.530;2023-04-23T13:18:28;16.59;63.23
73133;DHT22;61320;52.008;4.530;2023-04-23T13:20:53;16.62;62.31
73133;DHT22;61320;52.008;4.530;2023-04-23T13:23:19;16.53;62.63
73133;DHT22;61320;52.008;4.530;2023-04-23T13:25:44;16.57;63.16
73133;DHT22;61320;52.008;4.530;2023-04-23T13:28:09;16.51;64.03
73133;DHT22;61320;52.008;4.530;2023-04-23T13:30:35;16.48;63.64
73133;DHT22;61320;52.008;4.530;2023-04-23T13:33:00;16.46;63.56
73133;DHT22;61320;52.008;4.530;2023-04-23T13:35:26;16.48;64.43
73133;DHT22;61320;52.008;4.530;2023-04-23T13:37:51;16.41;64.21
73133;DHT22;61320;52.008;4.530;2023-04-23T13:40:17;16.32;64.85
73133;DHT22;61320;52.008;4.530;2023-04-23T13:42:43;16.28;65.69
73133;DHT22;61320;52.008;4.530;2023-04-23T13:45:09;16.25;66.87
73133;DHT22;61320;52.008;4.530;2023-04-23T13:47:34;16.05;66.76
73133;DHT22;61320;52.008;4.530;2023-04-23T13:50:00;16.00;66.57
73133;DHT22;61320;52.008;4.530;2023-04-23T13:52:31;16.02;67.16
73133;DHT22;61320;52.008;4.530;2023-04-23T13:54:57;16.04;67.04
73133;DHT22;61320;52.008;4.530;2023-04-23T13:57:25;16.11;67.77
73133;DHT22;61320;52.008;4.530;2023-04-23T13:59:51;16.06;67.04
73133;DHT22;61320;52.008;4.530;2023-04-23T14:02:19;16.09;68.23
73133;DHT22;61320;52.008;4.530;2023-04-23T14:04:45;16.12;68.87
73133;DHT22;61320;52.008;4.530;2023-04-23T14:07:10;16.06;68.36
73133;DHT22;61320;52.008;4.530;2023-04-23T14:09:36;15.98;69.17
73133;DHT22;61320;52.008;4.530;2023-04-23T14:12:01;15.77;69.04
73133;DHT22;61320;52.008;4.530;2023-04-23T14:14:27;15.70;69.51
73133;DHT22;61320;52.008;4.530;2023-04-23T14:16:52;15.64;69.69
73133;DHT22;61320;52.008;4.530;2023-04-23T14:19:18;15.54;70.22
73133;DHT22;61320;52.008;4.530;2023-04-23T14:21:44;15.54;72.25
73133;DHT22;61320;52.008;4.530;2023-04-23T14:24:26;15.42;74.46
73133;DHT22;61320;52.008;4.530;2023-04-23T14:26:52;15.32;75.27
73133;DHT22;61320;52.008;4.530;2023-04-23T14:31:54;14.88;79.18
73133;DHT22;61320;52.008;4.530;2023-04-23T14:34:20;14.51;80.95
73133;DHT22;61320;52.008;4.530;2023-04-23T14:36:46;14.10;82.33
73133;DHT22;61320;52.008;4.530;2023-04-23T14:39:13;13.93;84.68
73133;DHT22;61320;52.008;4.530;2023-04-23T14:41:39;13.57;84.97
73133;DHT22;61320;52.008;4.530;2023-04-23T14:44:05;13.37;86.15
73133;DHT22;61320;52.008;4.530;2023-04-23T14:46:31;13.32;85.94
73133;DHT22;61320;52.008;4.530;2023-04-23T14:48:56;13.27;86.24
73133;DHT22;61320;52.008;4.530;2023-04-23T14:51:22;13.20;86.37
73133;DHT22;61320;52.008;4.530;2023-04-23T14:53:48;13.18;86.43
73133;DHT22;61320;52.008;4.530;2023-04-23T14:56:13;13.24;85.92
73133;DHT22;61320;52.008;4.530;2023-04-23T14:58:39;13.18;85.66
73133;DHT22;61320;52.008;4.530;2023-04-23T15:01:06;13.03;85.88
73133;DHT22;61320;52.008;4.530;2023-04-23T15:03:31;13.00;84.94
73133;DHT22;61320;52.008;4.530;2023-04-23T15:05:57;12.76;85.30
73133;DHT22;61320;52.008;4.530;2023-04-23T15:08:22;12.73;85.61
73133;DHT22;61320;52.008;4.530;2023-04-23T15:10:48;12.67;86.17
73133;DHT22;61320;52.008;4.530;2023-04-23T15:15:49;12.75;85.93
73133;DHT22;61320;52.008;4.530;2023-04-23T15:18:18;12.80;86.36
73133;DHT22;61320;52.008;4.530;2023-04-23T15:20:43;12.80;86.32
73133;DHT22;61320;52.008;4.530;2023-04-23T15:23:09;12.87;86.27
73133;DHT22;61320;52.008;4.530;2023-04-23T15:25:35;12.93;86.26
73133;DHT22;61320;52.008;4.530;2023-04-23T15:28:01;12.93;85.86
73133;DHT22;61320;52.008;4.530;2023-04-23T15:30:28;13.01;86.12
73133;DHT22;61320;52.008;4.530;2023-04-23T15:32:54;12.99;85.74
73133;DHT22;61320;52.008;4.530;2023-04-23T15:35:21;13.06;85.72
73133;DHT22;61320;52.008;4.530;2023-04-23T15:37:47;13.18;85.88
73133;DHT22;61320;52.008;4.530;2023-04-23T15:40:12;13.20;85.10
73133;DHT22;61320;52.008;4.530;2023-04-23T15:42:38;13.21;85.42
73133;DHT22;61320;52.008;4.530;2023-04-23T15:45:08;13.28;86.05
73133;DHT22;61320;52.008;4.530;2023-04-23T15:47:33;13.34;85.70